sensor_id;sensor_type;location;lat;lon;timestamp;P1;durP1;ratioP1;P2;durP2;ratioP2
64712;SDS011;51140;45.340;5.980;2023-04-08T00:01:04;9.18;;;2.15;;
64712;SDS011;51140;45.340;5.980;2023-04-08T00:03:29;5.65;;;1.90;;
64712;SDS011;51140;45.340;5.980;2023-04-08T00:05:55;5.45;;;2.00;;
64712;SDS011;51140;45.340;5.980;2023-04-08T00:08:20;4.13;;;1.90;;
64712;SDS011;51140;45.340;5.980;2023-04-08T00:10:46;4.70;;;1.63;;
64712;SDS011;51140;45.340;5.980;2023-04-08T00:13:11;5.20;;;1.88;;
64712;SDS011;51140;45.340;5.980;2023-04-08T00:15:37;6.13;;;1.65;;
64712;SDS011;51140;45.340;5.980;2023-04-08T00:18:02;4.93;;;1.80;;
64712;SDS011;51140;45.340;5.980;2023-04-08T00:20:28;4.32;;;1.58;;
64712;SDS011;51140;45.340;5.980;2023-04-08T00:22:53;4.13;;;1.50;;
64712;SDS011;51140;45.340;5.980;2023-04-08T00:25:19;4.07;;;1.92;;
64712;SDS011;51140;45.340;5.980;2023-04-08T00:27:44;5.00;;;2.00;;
64712;SDS011;51140;45.340;5.980;2023-04-08T00:30:10;5.25;;;1.65;;
64712;SDS011;51140;45.340;5.980;2023-04-08T00:32:35;6.07;;;1.90;;
64712;SDS011;51140;45.340;5.980;2023-04-08T00:35:01;5.43;;;1.95;;
64712;SDS011;51140;45.340;5.980;2023-04-08T00:37:27;4.30;;;1.52;;
64712;SDS011;51140;45.340;5.980;2023-04-08T00:39:52;5.25;;;1.48;;
64712;SDS011;51140;45.340;5.980;2023-04-08T00:42:18;3.70;;;1.40;;
64712;SDS011;51140;45.340;5.980;2023-04-08T00:44:45;3.40;;;1.35;;
64712;SDS011;51140;45.340;5.980;2023-04-08T00:47:11;7.88;;;1.88;;
64712;SDS011;51140;45.340;5.980;2023-04-08T00:49:37;4.32;;;1.48;;
64712;SDS011;51140;45.340;5.980;2023-04-08T00:52:03;6.93;;;1.70;;
64712;SDS011;51140;45.340;5.980;2023-04-08T00:54:29;4.40;;;1.77;;
64712;SDS011;51140;45.340;5.980;2023-04-08T00:56:55;4.03;;;1.60;;
64712;SDS011;51140;45.340;5.980;2023-04-08T00:59:24;4.38;;;1.52;;
64712;SDS011;51140;45.340;5.980;2023-04-08T01:01:53;4.43;;;1.90;;
64712;SDS011;51140;45.340;5.980;2023-04-08T01:07:12;4.03;;;1.60;;
64712;SDS011;51140;45.340;5.980;2023-04-08T01:09:43;4.57;;;1.52;;
64712;SDS011;51140;45.340;5.980;2023-04-08T01:12:12;4.40;;;1.35;;
64712;SDS011;51140;45.340;5.980;2023-04-08T01:14:44;2.47;;;1.20;;
64712;SDS011;51140;45.340;5.980;2023-04-08T01:17:11;4.38;;;1.42;;
64712;SDS011;51140;45.340;5.980;2023-04-08T01:19:40;4.53;;;1.63;;
64712;SDS011;51140;45.340;5.980;2023-04-08T01:22:14;4.45;;;1.63;;
64712;SDS011;51140;45.340;5.980;2023-04-08T01:24:51;4.78;;;1.92;;
64712;SDS011;51140;45.340;5.980;2023-04-08T01:27:26;4.60;;;1.50;;
64712;SDS011;51140;45.340;5.980;2023-04-08T01:29:54;7.38;;;1.95;;
64712;SDS011;51140;45.340;5.980;2023-04-08T01:32:19;6.28;;;2.35;;
64712;SDS011;51140;45.340;5.980;2023-04-08T01:34:45;5.78;;;2.42;;
64712;SDS011;51140;45.340;5.980;2023-04-08T01:37:12;5.95;;;2.40;;
64712;SDS011;51140;45.340;5.980;2023-04-08T01:39:39;6.07;;;2.55;;
64712;SDS011;51140;45.340;5.980;2023-04-08T01:42:05;6.25;;;2.95;;
64712;SDS011;51140;45.340;5.980;2023-04-08T01:44:33;5.82;;;2.45;;
64712;SDS011;51140;45.340;5.980;2023-04-08T01:46:59;7.05;;;2.47;;
64712;SDS011;51140;45.340;5.980;2023-04-08T01:49:26;6.53;;;2.40;;
64712;SDS011;51140;45.340;5.980;2023-04-08T01:51:53;8.25;;;2.53;;
64712;SDS011;51140;45.340;5.980;2023-04-08T01:54:20;5.80;;;2.35;;
64712;SDS011;51140;45.340;5.980;2023-04-08T01:56:46;6.13;;;2.45;;
64712;SDS011;51140;45.340;5.980;2023-04-08T01:59:13;5.97;;;1.80;;
64712;SDS011;51140;45.340;5.980;2023-04-08T02:01:41;5.03;;;1.92;;
64712;SDS011;51140;45.340;5.980;2023-04-08T02:04:09;4.57;;;2.03;;
64712;SDS011;51140;45.340;5.980;2023-04-08T02:06:34;4.82;;;1.95;;
64712;SDS011;51140;45.340;5.980;2023-04-08T02:09:01;5.72;;;2.67;;
64712;SDS011;51140;45.340;5.980;2023-04-08T02:11:28;7.43;;;2.80;;
64712;SDS011;51140;45.340;5.980;2023-04-08T02:13:53;6.35;;;2.58;;
64712;SDS011;51140;45.340;5.980;2023-04-08T02:16:23;7.03;;;2.75;;
64712;SDS011;51140;45.340;5.980;2023-04-08T02:18:59;9.00;;;3.40;;
64712;SDS011;51140;45.340;5.980;2023-04-08T02:21:32;6.00;;;2.20;;
64712;SDS011;51140;45.340;5.980;2023-04-08T02:24:07;6.57;;;2.97;;
64712;SDS011;51140;45.340;5.980;2023-04-08T02:26:37;6.03;;;2.53;;
64712;SDS011;51140;45.340;5.980;2023-04-08T02:29:04;7.72;;;2.90;;
64712;SDS011;51140;45.340;5.980;2023-04-08T02:31:30;5.82;;;2.08;;
64712;SDS011;51140;45.340;5.980;2023-04-08T02:33:57;6.78;;;2.28;;
64712;SDS011;51140;45.340;5.980;2023-04-08T02:36:23;5.50;;;2.40;;
64712;SDS011;51140;45.340;5.980;2023-04-08T02:38:50;5.95;;;2.20;;
64712;SDS011;51140;45.340;5.980;2023-04-08T02:41:16;6.20;;;2.30;;
64712;SDS011;51140;45.340;5.980;2023-04-08T02:43:41;6.15;;;2.50;;
64712;SDS011;51140;45.340;5.980;2023-04-08T02:46:07;5.65;;;2.38;;
64712;SDS011;51140;45.340;5.980;2023-04-08T02:48:34;6.88;;;2.80;;
64712;SDS011;51140;45.340;5.980;2023-04-08T02:50:59;5.57;;;2.25;;
64712;SDS011;51140;45.340;5.980;2023-04-08T02:53:25;7.28;;;2.83;;
64712;SDS011;51140;45.340;5.980;2023-04-08T02:55:50;6.93;;;3.13;;
64712;SDS011;51140;45.340;5.980;2023-04-08T02:58:16;7.80;;;2.63;;
64712;SDS011;51140;45.340;5.980;2023-04-08T03:00:41;7.90;;;2.80;;
64712;SDS011;51140;45.340;5.980;2023-04-08T03:03:06;5.60;;;2.22;;
64712;SDS011;51140;45.340;5.980;2023-04-08T03:05:32;6.05;;;2.80;;
64712;SDS011;51140;45.340;5.980;2023-04-08T03:07:58;6.78;;;2.80;;
64712;SDS011;51140;45.340;5.980;2023-04-08T03:10:23;5.70;;;2.28;;
64712;SDS011;51140;45.340;5.980;2023-04-08T03:12:49;6.80;;;2.25;;
64712;SDS011;51140;45.340;5.980;2023-04-08T03:15:14;6.28;;;2.40;;
64712;SDS011;51140;45.340;5.980;2023-04-08T03:17:40;5.93;;;2.15;;
64712;SDS011;51140;45.340;5.980;2023-04-08T03:20:05;7.05;;;2.83;;
64712;SDS011;51140;45.340;5.980;2023-04-08T03:22:32;5.88;;;2.45;;
64712;SDS011;51140;45.340;5.980;2023-04-08T03:24:57;6.40;;;2.08;;
64712;SDS011;51140;45.340;5.980;2023-04-08T03:27:23;6.05;;;2.53;;
64712;SDS011;51140;45.340;5.980;2023-04-08T03:29:48;6.28;;;2.17;;
64712;SDS011;51140;45.340;5.980;2023-04-08T03:32:14;6.70;;;2.50;;
64712;SDS011;51140;45.340;5.980;2023-04-08T03:34:39;7.18;;;2.92;;
64712;SDS011;51140;45.340;5.980;2023-04-08T03:37:05;5.47;;;2.17;;
64712;SDS011;51140;45.340;5.980;2023-04-08T03:39:31;7.57;;;2.70;;
64712;SDS011;51140;45.340;5.980;2023-04-08T03:41:57;7.85;;;2.72;;
64712;SDS011;51140;45.340;5.980;2023-04-08T03:44:24;6.40;;;2.70;;
64712;SDS011;51140;45.340;5.980;2023-04-08T03:46:50;6.68;;;2.65;;
64712;SDS011;51140;45.340;5.980;2023-04-08T03:49:15;6.38;;;2.90;;
64712;SDS011;51140;45.340;5.980;2023-04-08T03:51:41;4.55;;;2.15;;
64712;SDS011;51140;45.340;5.980;2023-04-08T03:54:06;7.45;;;2.38;;
64712;SDS011;51140;45.340;5.980;2023-04-08T03:56:31;4.82;;;2.17;;
64712;SDS011;51140;45.340;5.980;2023-04-08T03:58:57;5.43;;;2.33;;
64712;SDS011;51140;45.340;5.980;2023-04-08T04:01:22;6.85;;;2.20;;
64712;SDS011;51140;45.340;5.980;2023-04-08T04:03:47;5.63;;;2.22;;
64712;SDS011;51140;45.340;5.980;2023-04-08T04:06:13;4.70;;;2.00;;
64712;SDS011;51140;45.340;5.980;2023-04-08T04:08:38;5.25;;;1.98;;
64712;SDS011;51140;45.340;5.980;2023-04-08T04:11:04;6.03;;;2.20;;
64712;SDS011;51140;45.340;5.980;2023-04-08T04:13:29;7.30;;;1.85;;
64712;SDS011;51140;45.340;5.980;2023-04-08T04:15:54;4.88;;;2.08;;
64712;SDS011;51140;45.340;5.980;2023-04-08T04:18:21;4.63;;;1.88;;
64712;SDS011;51140;45.340;5.980;2023-04-08T04:20:47;4.43;;;1.88;;
64712;SDS011;51140;45.340;5.980;2023-04-08T04:23:12;4.82;;;1.98;;
64712;SDS011;51140;45.340;5.980;2023-04-08T04:25:39;4.40;;;1.77;;
64712;SDS011;51140;45.340;5.980;2023-04-08T04:28:05;4.53;;;1.90;;
64712;SDS011;51140;45.340;5.980;2023-04-08T04:30:31;12.93;;;5.65;;
64712;SDS011;51140;45.340;5.980;2023-04-08T04:32:57;6.63;;;3.08;;
64712;SDS011;51140;45.340;5.980;2023-04-08T04:35:22;17.13;;;8.80;;
64712;SDS011;51140;45.340;5.980;2023-04-08T04:37:48;25.00;;;13.77;;
64712;SDS011;51140;45.340;5.980;2023-04-08T04:40:15;9.88;;;5.72;;
64712;SDS011;51140;45.340;5.980;2023-04-08T04:42:41;5.72;;;2.30;;
64712;SDS011;51140;45.340;5.980;2023-04-08T04:45:07;4.43;;;1.70;;
64712;SDS011;51140;45.340;5.980;2023-04-08T04:47:34;6.03;;;1.95;;
64712;SDS011;51140;45.340;5.980;2023-04-08T04:49:59;6.35;;;2.30;;
64712;SDS011;51140;45.340;5.980;2023-04-08T04:52:25;5.13;;;2.08;;
64712;SDS011;51140;45.340;5.980;2023-04-08T04:54:50;7.03;;;2.20;;
64712;SDS011;51140;45.340;5.980;2023-04-08T04:57:16;7.45;;;2.28;;
64712;SDS011;51140;45.340;5.980;2023-04-08T04:59:41;5.60;;;2.08;;
64712;SDS011;51140;45.340;5.980;2023-04-08T05:02:06;7.15;;;2.28;;
64712;SDS011;51140;45.340;5.980;2023-04-08T05:04:32;5.80;;;2.28;;
64712;SDS011;51140;45.340;5.980;2023-04-08T05:07:00;7.20;;;2.35;;
64712;SDS011;51140;45.340;5.980;2023-04-08T05:09:25;6.13;;;2.15;;
64712;SDS011;51140;45.340;5.980;2023-04-08T05:11:51;5.97;;;2.28;;
64712;SDS011;51140;45.340;5.980;2023-04-08T05:14:16;7.43;;;2.30;;
64712;SDS011;51140;45.340;5.980;2023-04-08T05:16:41;5.43;;;2.10;;
64712;SDS011;51140;45.340;5.980;2023-04-08T05:19:07;6.22;;;2.38;;
64712;SDS011;51140;45.340;5.980;2023-04-08T05:21:32;7.90;;;2.60;;
64712;SDS011;51140;45.340;5.980;2023-04-08T05:23:57;6.50;;;2.28;;
64712;SDS011;51140;45.340;5.980;2023-04-08T05:26:23;5.88;;;2.60;;
64712;SDS011;51140;45.340;5.980;2023-04-08T05:28:49;6.03;;;2.70;;
64712;SDS011;51140;45.340;5.980;2023-04-08T05:31:18;5.95;;;2.25;;
64712;SDS011;51140;45.340;5.980;2023-04-08T05:33:44;10.77;;;2.85;;
64712;SDS011;51140;45.340;5.980;2023-04-08T05:36:10;7.32;;;2.92;;
64712;SDS011;51140;45.340;5.980;2023-04-08T05:38:36;8.80;;;3.40;;
64712;SDS011;51140;45.340;5.980;2023-04-08T05:41:02;11.43;;;4.65;;
64712;SDS011;51140;45.340;5.980;2023-04-08T05:43:27;11.02;;;5.00;;
64712;SDS011;51140;45.340;5.980;2023-04-08T05:45:53;9.75;;;4.88;;
64712;SDS011;51140;45.340;5.980;2023-04-08T05:48:18;10.02;;;4.93;;
64712;SDS011;51140;45.340;5.980;2023-04-08T05:50:43;10.27;;;5.40;;
64712;SDS011;51140;45.340;5.980;2023-04-08T05:53:09;10.35;;;4.90;;
64712;SDS011;51140;45.340;5.980;2023-04-08T05:55:34;9.85;;;5.15;;
64712;SDS011;51140;45.340;5.980;2023-04-08T05:58:00;11.30;;;6.25;;
64712;SDS011;51140;45.340;5.980;2023-04-08T06:00:25;10.73;;;5.05;;
64712;SDS011;51140;45.340;5.980;2023-04-08T06:02:51;15.10;;;7.43;;
64712;SDS011;51140;45.340;5.980;2023-04-08T06:05:16;9.70;;;5.15;;
64712;SDS011;51140;45.340;5.980;2023-04-08T06:07:43;16.25;;;7.63;;
64712;SDS011;51140;45.340;5.980;2023-04-08T06:10:08;11.57;;;6.75;;
64712;SDS011;51140;45.340;5.980;2023-04-08T06:12:35;5.88;;;2.53;;
64712;SDS011;51140;45.340;5.980;2023-04-08T06:15:02;6.80;;;2.35;;
64712;SDS011;51140;45.340;5.980;2023-04-08T06:17:28;8.57;;;4.75;;
64712;SDS011;51140;45.340;5.980;2023-04-08T06:19:53;9.63;;;5.18;;
64712;SDS011;51140;45.340;5.980;2023-04-08T06:22:19;9.48;;;4.50;;
64712;SDS011;51140;45.340;5.980;2023-04-08T06:24:45;13.25;;;6.18;;
64712;SDS011;51140;45.340;5.980;2023-04-08T06:27:11;12.40;;;6.93;;
64712;SDS011;51140;45.340;5.980;2023-04-08T06:29:37;13.68;;;7.00;;
64712;SDS011;51140;45.340;5.980;2023-04-08T06:32:02;12.55;;;6.57;;
64712;SDS011;51140;45.340;5.980;2023-04-08T06:34:27;12.65;;;6.97;;
64712;SDS011;51140;45.340;5.980;2023-04-08T06:36:53;13.18;;;6.38;;
64712;SDS011;51140;45.340;5.980;2023-04-08T06:39:18;12.77;;;6.72;;
64712;SDS011;51140;45.340;5.980;2023-04-08T06:41:45;11.80;;;6.68;;
64712;SDS011;51140;45.340;5.980;2023-04-08T06:44:10;14.57;;;7.28;;
64712;SDS011;51140;45.340;5.980;2023-04-08T06:46:36;12.77;;;6.50;;
64712;SDS011;51140;45.340;5.980;2023-04-08T06:49:01;14.38;;;6.95;;
64712;SDS011;51140;45.340;5.980;2023-04-08T06:51:28;13.45;;;6.38;;
64712;SDS011;51140;45.340;5.980;2023-04-08T06:53:53;12.18;;;6.28;;
64712;SDS011;51140;45.340;5.980;2023-04-08T06:56:19;11.32;;;6.07;;
64712;SDS011;51140;45.340;5.980;2023-04-08T06:58:46;12.48;;;5.07;;
64712;SDS011;51140;45.340;5.980;2023-04-08T07:01:11;10.52;;;5.43;;
64712;SDS011;51140;45.340;5.980;2023-04-08T07:03:37;10.77;;;5.13;;
64712;SDS011;51140;45.340;5.980;2023-04-08T07:06:02;11.73;;;6.43;;
64712;SDS011;51140;45.340;5.980;2023-04-08T07:08:28;11.50;;;4.70;;
64712;SDS011;51140;45.340;5.980;2023-04-08T07:10:53;10.43;;;4.72;;
64712;SDS011;51140;45.340;5.980;2023-04-08T07:13:19;10.30;;;4.60;;
64712;SDS011;51140;45.340;5.980;2023-04-08T07:15:44;8.50;;;4.30;;
64712;SDS011;51140;45.340;5.980;2023-04-08T07:18:09;8.07;;;3.88;;
64712;SDS011;51140;45.340;5.980;2023-04-08T07:20:36;8.45;;;4.07;;
64712;SDS011;51140;45.340;5.980;2023-04-08T07:23:02;9.98;;;4.40;;
64712;SDS011;51140;45.340;5.980;2023-04-08T07:25:44;8.45;;;3.90;;
64712;SDS011;51140;45.340;5.980;2023-04-08T07:28:13;9.05;;;3.97;;
64712;SDS011;51140;45.340;5.980;2023-04-08T07:30:44;6.88;;;3.20;;
64712;SDS011;51140;45.340;5.980;2023-04-08T07:33:10;8.05;;;3.25;;
64712;SDS011;51140;45.340;5.980;2023-04-08T07:35:35;6.53;;;2.70;;
64712;SDS011;51140;45.340;5.980;2023-04-08T07:38:01;6.45;;;2.92;;
64712;SDS011;51140;45.340;5.980;2023-04-08T07:40:27;6.60;;;2.70;;
64712;SDS011;51140;45.340;5.980;2023-04-08T07:42:55;5.85;;;2.63;;
64712;SDS011;51140;45.340;5.980;2023-04-08T07:45:23;7.25;;;2.75;;
64712;SDS011;51140;45.340;5.980;2023-04-08T07:47:50;7.90;;;2.78;;
64712;SDS011;51140;45.340;5.980;2023-04-08T07:50:15;7.93;;;3.17;;
64712;SDS011;51140;45.340;5.980;2023-04-08T07:52:41;8.40;;;3.97;;
64712;SDS011;51140;45.340;5.980;2023-04-08T07:55:07;9.10;;;4.10;;
64712;SDS011;51140;45.340;5.980;2023-04-08T07:57:32;8.63;;;4.03;;
64712;SDS011;51140;45.340;5.980;2023-04-08T07:59:58;8.90;;;3.60;;
64712;SDS011;51140;45.340;5.980;2023-04-08T08:02:23;9.95;;;5.38;;
64712;SDS011;51140;45.340;5.980;2023-04-08T08:04:48;8.23;;;3.38;;
64712;SDS011;51140;45.340;5.980;2023-04-08T08:07:14;7.10;;;3.22;;
64712;SDS011;51140;45.340;5.980;2023-04-08T08:09:39;7.90;;;3.60;;
64712;SDS011;51140;45.340;5.980;2023-04-08T08:12:05;8.32;;;3.67;;
64712;SDS011;51140;45.340;5.980;2023-04-08T08:14:30;8.60;;;4.25;;
64712;SDS011;51140;45.340;5.980;2023-04-08T08:16:55;8.82;;;3.78;;
64712;SDS011;51140;45.340;5.980;2023-04-08T08:19:21;11.38;;;5.20;;
64712;SDS011;51140;45.340;5.980;2023-04-08T08:21:46;7.03;;;3.60;;
64712;SDS011;51140;45.340;5.980;2023-04-08T08:24:12;8.07;;;4.40;;
64712;SDS011;51140;45.340;5.980;2023-04-08T08:26:38;8.48;;;4.30;;
64712;SDS011;51140;45.340;5.980;2023-04-08T08:29:03;8.50;;;4.70;;
64712;SDS011;51140;45.340;5.980;2023-04-08T08:31:29;8.32;;;4.45;;
64712;SDS011;51140;45.340;5.980;2023-04-08T08:33:54;10.02;;;4.10;;
64712;SDS011;51140;45.340;5.980;2023-04-08T08:36:20;7.40;;;4.43;;
64712;SDS011;51140;45.340;5.980;2023-04-08T08:38:46;8.35;;;4.85;;
64712;SDS011;51140;45.340;5.980;2023-04-08T08:41:11;7.78;;;4.20;;
64712;SDS011;51140;45.340;5.980;2023-04-08T08:43:37;7.95;;;3.58;;
64712;SDS011;51140;45.340;5.980;2023-04-08T08:46:02;7.93;;;4.47;;
64712;SDS011;51140;45.340;5.980;2023-04-08T08:48:28;7.35;;;3.97;;
64712;SDS011;51140;45.340;5.980;2023-04-08T08:50:53;6.35;;;3.30;;
64712;SDS011;51140;45.340;5.980;2023-04-08T08:53:19;8.35;;;4.28;;
64712;SDS011;51140;45.340;5.980;2023-04-08T08:55:44;7.15;;;4.00;;
64712;SDS011;51140;45.340;5.980;2023-04-08T08:58:10;7.28;;;4.15;;
64712;SDS011;51140;45.340;5.980;2023-04-08T09:05:49;8.45;;;3.80;;
64712;SDS011;51140;45.340;5.980;2023-04-08T09:13:38;5.18;;;2.85;;
64712;SDS011;51140;45.340;5.980;2023-04-08T09:16:04;6.43;;;2.75;;
64712;SDS011;51140;45.340;5.980;2023-04-08T09:18:30;5.72;;;3.03;;
64712;SDS011;51140;45.340;5.980;2023-04-08T09:21:00;6.28;;;3.70;;
64712;SDS011;51140;45.340;5.980;2023-04-08T09:23:45;7.07;;;4.10;;
64712;SDS011;51140;45.340;5.980;2023-04-08T09:26:14;5.60;;;2.97;;
64712;SDS011;51140;45.340;5.980;2023-04-08T09:28:42;4.80;;;2.55;;
64712;SDS011;51140;45.340;5.980;2023-04-08T09:31:18;6.30;;;2.40;;
64712;SDS011;51140;45.340;5.980;2023-04-08T09:33:46;5.68;;;2.50;;
64712;SDS011;51140;45.340;5.980;2023-04-08T09:36:13;4.55;;;2.45;;
64712;SDS011;51140;45.340;5.980;2023-04-08T09:38:39;5.10;;;2.67;;
64712;SDS011;51140;45.340;5.980;2023-04-08T09:41:06;5.13;;;2.58;;
64712;SDS011;51140;45.340;5.980;2023-04-08T09:43:34;6.07;;;3.60;;
64712;SDS011;51140;45.340;5.980;2023-04-08T09:46:07;5.85;;;2.85;;
64712;SDS011;51140;45.340;5.980;2023-04-08T09:48:38;5.10;;;2.67;;
64712;SDS011;51140;45.340;5.980;2023-04-08T09:51:15;4.90;;;2.53;;
64712;SDS011;51140;45.340;5.980;2023-04-08T09:53:47;5.07;;;2.47;;
64712;SDS011;51140;45.340;5.980;2023-04-08T09:56:14;4.25;;;2.15;;
64712;SDS011;51140;45.340;5.980;2023-04-08T09:58:44;5.47;;;2.67;;
64712;SDS011;51140;45.340;5.980;2023-04-08T10:01:16;5.05;;;2.58;;
64712;SDS011;51140;45.340;5.980;2023-04-08T10:03:49;6.13;;;2.47;;
64712;SDS011;51140;45.340;5.980;2023-04-08T10:06:18;4.70;;;2.15;;
64712;SDS011;51140;45.340;5.980;2023-04-08T10:08:45;4.30;;;1.70;;
64712;SDS011;51140;45.340;5.980;2023-04-08T10:11:13;4.53;;;2.28;;
64712;SDS011;51140;45.340;5.980;2023-04-08T10:13:39;3.85;;;1.70;;
64712;SDS011;51140;45.340;5.980;2023-04-08T10:16:21;4.32;;;2.10;;
64712;SDS011;51140;45.340;5.980;2023-04-08T10:18:49;4.53;;;1.92;;
64712;SDS011;51140;45.340;5.980;2023-04-08T10:21:35;3.42;;;1.70;;
64712;SDS011;51140;45.340;5.980;2023-04-08T10:24:07;5.93;;;3.10;;
64712;SDS011;51140;45.340;5.980;2023-04-08T10:26:35;5.00;;;2.35;;
64712;SDS011;51140;45.340;5.980;2023-04-08T10:29:46;4.38;;;2.15;;
64712;SDS011;51140;45.340;5.980;2023-04-08T10:31:52;4.60;;;2.20;;
64712;SDS011;51140;45.340;5.980;2023-04-08T10:34:22;5.60;;;1.98;;
64712;SDS011;51140;45.340;5.980;2023-04-08T10:36:51;4.88;;;1.85;;
64712;SDS011;51140;45.340;5.980;2023-04-08T10:39:19;6.20;;;2.13;;
64712;SDS011;51140;45.340;5.980;2023-04-08T10:41:46;4.38;;;2.30;;
64712;SDS011;51140;45.340;5.980;2023-04-08T10:44:17;4.63;;;2.40;;
64712;SDS011;51140;45.340;5.980;2023-04-08T10:46:43;5.70;;;2.38;;
64712;SDS011;51140;45.340;5.980;2023-04-08T10:49:13;4.13;;;1.95;;
64712;SDS011;51140;45.340;5.980;2023-04-08T10:51:39;4.95;;;2.60;;
64712;SDS011;51140;45.340;5.980;2023-04-08T10:54:06;4.15;;;2.10;;
64712;SDS011;51140;45.340;5.980;2023-04-08T10:56:33;4.47;;;2.15;;
64712;SDS011;51140;45.340;5.980;2023-04-08T10:59:00;3.50;;;1.80;;
64712;SDS011;51140;45.340;5.980;2023-04-08T11:01:25;4.55;;;1.80;;
64712;SDS011;51140;45.340;5.980;2023-04-08T11:03:51;4.05;;;1.80;;
64712;SDS011;51140;45.340;5.980;2023-04-08T11:06:17;4.28;;;1.90;;
64712;SDS011;51140;45.340;5.980;2023-04-08T11:08:43;4.30;;;1.70;;
64712;SDS011;51140;45.340;5.980;2023-04-08T11:11:09;5.30;;;1.95;;
64712;SDS011;51140;45.340;5.980;2023-04-08T11:13:36;4.63;;;1.92;;
64712;SDS011;51140;45.340;5.980;2023-04-08T11:16:05;5.28;;;2.03;;
64712;SDS011;51140;45.340;5.980;2023-04-08T11:18:39;4.75;;;2.38;;
64712;SDS011;51140;45.340;5.980;2023-04-08T11:21:08;3.55;;;1.67;;
64712;SDS011;51140;45.340;5.980;2023-04-08T11:23:37;5.95;;;1.98;;
64712;SDS011;51140;45.340;5.980;2023-04-08T11:26:03;5.90;;;2.10;;
64712;SDS011;51140;45.340;5.980;2023-04-08T11:28:28;4.75;;;1.95;;
64712;SDS011;51140;45.340;5.980;2023-04-08T11:30:54;4.25;;;1.60;;
64712;SDS011;51140;45.340;5.980;2023-04-08T11:33:23;4.47;;;1.95;;
64712;SDS011;51140;45.340;5.980;2023-04-08T11:35:51;5.05;;;1.67;;
64712;SDS011;51140;45.340;5.980;2023-04-08T11:38:16;3.85;;;1.77;;
64712;SDS011;51140;45.340;5.980;2023-04-08T11:40:53;4.00;;;1.80;;
64712;SDS011;51140;45.340;5.980;2023-04-08T11:43:19;5.47;;;1.73;;
64712;SDS011;51140;45.340;5.980;2023-04-08T11:45:45;4.68;;;1.77;;
64712;SDS011;51140;45.340;5.980;2023-04-08T11:48:11;7.38;;;1.90;;
64712;SDS011;51140;45.340;5.980;2023-04-08T11:50:38;4.80;;;1.88;;
64712;SDS011;51140;45.340;5.980;2023-04-08T11:53:14;4.93;;;1.80;;
64712;SDS011;51140;45.340;5.980;2023-04-08T11:55:46;3.20;;;1.60;;
64712;SDS011;51140;45.340;5.980;2023-04-08T11:58:12;3.22;;;1.60;;
64712;SDS011;51140;45.340;5.980;2023-04-08T12:00:39;4.70;;;1.67;;
64712;SDS011;51140;45.340;5.980;2023-04-08T12:03:04;4.75;;;1.80;;
64712;SDS011;51140;45.340;5.980;2023-04-08T12:05:31;4.65;;;1.67;;
64712;SDS011;51140;45.340;5.980;2023-04-08T12:07:56;4.32;;;1.52;;
64712;SDS011;51140;45.340;5.980;2023-04-08T12:10:21;3.20;;;1.45;;
64712;SDS011;51140;45.340;5.980;2023-04-08T12:12:49;3.78;;;1.65;;
64712;SDS011;51140;45.340;5.980;2023-04-08T12:15:14;3.85;;;1.50;;
64712;SDS011;51140;45.340;5.980;2023-04-08T12:17:40;4.45;;;1.40;;
64712;SDS011;51140;45.340;5.980;2023-04-08T12:20:05;4.30;;;1.60;;
64712;SDS011;51140;45.340;5.980;2023-04-08T12:22:31;4.30;;;1.80;;
64712;SDS011;51140;45.340;5.980;2023-04-08T12:24:57;3.22;;;1.58;;
64712;SDS011;51140;45.340;5.980;2023-04-08T12:27:22;5.00;;;1.90;;
64712;SDS011;51140;45.340;5.980;2023-04-08T12:29:47;3.30;;;1.33;;
64712;SDS011;51140;45.340;5.980;2023-04-08T12:32:14;7.47;;;1.80;;
64712;SDS011;51140;45.340;5.980;2023-04-08T12:34:39;5.60;;;1.73;;
64712;SDS011;51140;45.340;5.980;2023-04-08T12:37:05;4.78;;;1.52;;
64712;SDS011;51140;45.340;5.980;2023-04-08T12:39:30;3.95;;;1.75;;
64712;SDS011;51140;45.340;5.980;2023-04-08T12:41:56;3.83;;;1.73;;
64712;SDS011;51140;45.340;5.980;2023-04-08T12:44:21;2.90;;;1.30;;
64712;SDS011;51140;45.340;5.980;2023-04-08T12:46:46;3.83;;;1.40;;
64712;SDS011;51140;45.340;5.980;2023-04-08T12:49:12;4.22;;;1.65;;
64712;SDS011;51140;45.340;5.980;2023-04-08T12:51:37;2.60;;;1.02;;
64712;SDS011;51140;45.340;5.980;2023-04-08T12:54:04;2.95;;;1.10;;
64712;SDS011;51140;45.340;5.980;2023-04-08T12:56:29;3.33;;;1.20;;
64712;SDS011;51140;45.340;5.980;2023-04-08T12:58:56;3.60;;;1.10;;
64712;SDS011;51140;45.340;5.980;2023-04-08T13:01:22;3.65;;;1.00;;
64712;SDS011;51140;45.340;5.980;2023-04-08T13:03:47;4.18;;;1.40;;
64712;SDS011;51140;45.340;5.980;2023-04-08T13:06:13;4.88;;;1.50;;
64712;SDS011;51140;45.340;5.980;2023-04-08T13:08:39;3.30;;;1.15;;
64712;SDS011;51140;45.340;5.980;2023-04-08T13:11:06;3.92;;;1.00;;
64712;SDS011;51140;45.340;5.980;2023-04-08T13:13:31;3.50;;;1.20;;
64712;SDS011;51140;45.340;5.980;2023-04-08T13:15:57;3.05;;;1.20;;
64712;SDS011;51140;45.340;5.980;2023-04-08T13:18:22;3.33;;;1.00;;
64712;SDS011;51140;45.340;5.980;2023-04-08T13:20:48;4.70;;;1.17;;
64712;SDS011;51140;45.340;5.980;2023-04-08T13:23:13;2.63;;;1.15;;
64712;SDS011;51140;45.340;5.980;2023-04-08T13:25:41;4.43;;;1.27;;
64712;SDS011;51140;45.340;5.980;2023-04-08T13:28:07;3.22;;;1.30;;
64712;SDS011;51140;45.340;5.980;2023-04-08T13:30:33;2.28;;;1.02;;
64712;SDS011;51140;45.340;5.980;2023-04-08T13:32:58;2.83;;;1.13;;
64712;SDS011;51140;45.340;5.980;2023-04-08T13:35:24;2.88;;;1.10;;
64712;SDS011;51140;45.340;5.980;2023-04-08T13:37:49;2.63;;;1.10;;
64712;SDS011;51140;45.340;5.980;2023-04-08T13:40:14;2.47;;;1.00;;
64712;SDS011;51140;45.340;5.980;2023-04-08T13:42:40;3.30;;;1.20;;
64712;SDS011;51140;45.340;5.980;2023-04-08T13:45:06;2.75;;;1.20;;
64712;SDS011;51140;45.340;5.980;2023-04-08T13:47:31;4.47;;;1.40;;
64712;SDS011;51140;45.340;5.980;2023-04-08T13:49:57;4.80;;;1.70;;
64712;SDS011;51140;45.340;5.980;2023-04-08T13:52:22;4.57;;;1.25;;
64712;SDS011;51140;45.340;5.980;2023-04-08T13:54:48;3.25;;;1.20;;
64712;SDS011;51140;45.340;5.980;2023-04-08T13:57:13;3.33;;;1.10;;
64712;SDS011;51140;45.340;5.980;2023-04-08T13:59:38;3.33;;;1.20;;
64712;SDS011;51140;45.340;5.980;2023-04-08T14:02:04;5.55;;;1.35;;
64712;SDS011;51140;45.340;5.980;2023-04-08T14:04:29;3.88;;;1.30;;
64712;SDS011;51140;45.340;5.980;2023-04-08T14:06:55;4.80;;;1.40;;
64712;SDS011;51140;45.340;5.980;2023-04-08T14:09:22;3.85;;;1.17;;
64712;SDS011;51140;45.340;5.980;2023-04-08T14:11:47;7.57;;;2.00;;
64712;SDS011;51140;45.340;5.980;2023-04-08T14:14:13;3.55;;;1.40;;
64712;SDS011;51140;45.340;5.980;2023-04-08T14:16:38;4.80;;;1.30;;
64712;SDS011;51140;45.340;5.980;2023-04-08T14:19:05;4.38;;;1.73;;
64712;SDS011;51140;45.340;5.980;2023-04-08T14:21:31;7.20;;;2.90;;
64712;SDS011;51140;45.340;5.980;2023-04-08T14:23:56;4.05;;;1.50;;
64712;SDS011;51140;45.340;5.980;2023-04-08T14:26:22;6.32;;;2.00;;
64712;SDS011;51140;45.340;5.980;2023-04-08T14:28:48;4.80;;;1.23;;
64712;SDS011;51140;45.340;5.980;2023-04-08T14:31:13;3.72;;;1.40;;
64712;SDS011;51140;45.340;5.980;2023-04-08T14:33:39;3.17;;;1.17;;
64712;SDS011;51140;45.340;5.980;2023-04-08T14:36:04;2.30;;;1.10;;
64712;SDS011;51140;45.340;5.980;2023-04-08T14:38:30;3.25;;;1.15;;
64712;SDS011;51140;45.340;5.980;2023-04-08T14:40:56;2.08;;;0.90;;
64712;SDS011;51140;45.340;5.980;2023-04-08T14:43:22;3.55;;;1.10;;
64712;SDS011;51140;45.340;5.980;2023-04-08T14:45:50;4.60;;;1.40;;
64712;SDS011;51140;45.340;5.980;2023-04-08T14:48:16;3.92;;;1.20;;
64712;SDS011;51140;45.340;5.980;2023-04-08T14:50:42;4.10;;;1.25;;
64712;SDS011;51140;45.340;5.980;2023-04-08T14:53:08;3.67;;;1.13;;
64712;SDS011;51140;45.340;5.980;2023-04-08T14:55:33;3.75;;;1.00;;